Time;durP1;ratioP1;P1;durP2;ratioP2;P2;SDS_P1;SDS_P2;PMS_P1;PMS_P2;Temp;Humidity;BMP_temperature;BMP_pressure;BME280_temperature;BME280_humidity;BME280_pressure;Samples;Min_cycle;Max_cycle;Signal;HPM_P1;HPM_P2
2022/03/16 00:02:13;;;;;;;;;;;18.30;52.40;;;;;;5014579;28;19949;-66
2022/03/16 00:04:38;;;;;;;;;;;18.30;52.50;;;;;;5013097;28;19914;-65
2022/03/16 00:07:04;;;;;;;;;;;18.30;52.50;;;;;;5013337;28;20447;-65
2022/03/16 00:09:29;;;;;;;;;;;18.30;52.40;;;;;;5013171;28;19918;-65
2022/03/16 00:11:55;;;;;;;;;;;18.30;52.50;;;;;;5013186;28;19975;-65
2022/03/16 00:14:20;;;;;;;;;;;18.30;52.50;;;;;;5013994;28;19921;-65
2022/03/16 00:16:45;;;;;;;;;;;18.30;52.40;;;;;;5013111;28;20096;-65
2022/03/16 00:19:11;;;;;;;;;;;18.30;52.40;;;;;;5015998;28;19929;-65
2022/03/16 00:21:36;;;;;;;;;;;18.30;52.40;;;;;;5019180;28;19920;-65
2022/03/16 00:24:02;;;;;;;;;;;18.30;52.30;;;;;;5014593;28;19918;-66
2022/03/16 00:26:27;;;;;;;;;;;18.30;52.50;;;;;;5018147;28;19913;-65
2022/03/16 00:28:53;;;;;;;;;;;18.30;52.50;;;;;;5012946;28;19921;-65
2022/03/16 00:31:18;;;;;;;;;;;18.30;52.30;;;;;;5015059;28;20343;-66
2022/03/16 00:33:44;;;;;;;;;;;18.30;52.40;;;;;;5013673;28;19913;-66
2022/03/16 00:36:09;;;;;;;;;;;18.30;52.30;;;;;;5020526;28;19968;-65
2022/03/16 00:38:35;;;;;;;;;;;18.30;52.50;;;;;;5014603;28;19918;-65
2022/03/16 00:41:01;;;;;;;;;;;18.30;52.50;;;;;;5014451;28;19913;-66
2022/03/16 00:43:26;;;;;;;;;;;18.20;52.50;;;;;;5014379;28;19918;-65
2022/03/16 00:45:52;;;;;;;;;;;18.20;52.50;;;;;;5014579;28;19914;-65
2022/03/16 00:48:17;;;;;;;;;;;18.30;52.50;;;;;;5015681;28;19943;-65
2022/03/16 00:50:42;;;;;;;;;;;18.30;52.50;;;;;;5014569;28;19921;-65
2022/03/16 00:53:08;;;;;;;;;;;18.30;52.50;;;;;;5014790;28;19914;-66
2022/03/16 00:55:33;;;;;;;;;;;18.30;52.50;;;;;;5015256;28;19921;-66
2022/03/16 00:58:01;;;;;;;;;;;18.30;52.50;;;;;;5015298;28;20403;-66
2022/03/16 01:00:26;;;;;;;;;;;18.30;52.50;;;;;;5021572;28;19917;-65
2022/03/16 01:02:53;;;;;;;;;;;18.30;52.40;;;;;;5018688;28;19937;-65
2022/03/16 01:05:19;;;;;;;;;;;18.30;52.50;;;;;;5017772;28;19914;-65
2022/03/16 01:07:44;;;;;;;;;;;18.20;52.40;;;;;;5016810;28;19917;-65
2022/03/16 01:10:09;;;;;;;;;;;18.20;52.40;;;;;;5020265;28;19917;-66
2022/03/16 01:12:35;;;;;;;;;;;18.30;52.40;;;;;;5018914;28;19921;-65
2022/03/16 01:15:00;;;;;;;;;;;18.30;52.40;;;;;;5018907;28;19920;-66
2022/03/16 01:17:26;;;;;;;;;;;18.20;52.40;;;;;;5018285;28;19918;-65
2022/03/16 01:19:51;;;;;;;;;;;18.20;52.40;;;;;;5018912;28;19921;-66
2022/03/16 01:22:17;;;;;;;;;;;18.30;52.40;;;;;;5017733;28;19939;-65
2022/03/16 01:24:42;;;;;;;;;;;18.30;52.30;;;;;;5019494;28;19919;-65
2022/03/16 01:27:08;;;;;;;;;;;18.20;52.30;;;;;;5025866;28;19917;-65
2022/03/16 01:29:33;;;;;;;;;;;18.30;52.40;;;;;;5014380;28;19914;-65
2022/03/16 01:31:59;;;;;;;;;;;18.30;52.40;;;;;;5019356;28;19967;-66
2022/03/16 01:34:24;;;;;;;;;;;18.20;52.40;;;;;;5019115;28;19913;-66
2022/03/16 01:36:49;;;;;;;;;;;18.20;52.40;;;;;;5019119;28;19909;-65
2022/03/16 01:39:15;;;;;;;;;;;18.30;52.40;;;;;;5017845;28;19974;-66
2022/03/16 01:41:42;;;;;;;;;;;18.30;52.40;;;;;;5021298;28;19920;-65
2022/03/16 01:44:07;;;;;;;;;;;18.30;52.40;;;;;;5018570;28;19932;-65
2022/03/16 01:46:33;;;;;;;;;;;18.20;52.40;;;;;;5016493;28;19916;-65
2022/03/16 01:48:58;;;;;;;;;;;18.20;52.50;;;;;;5018113;28;19913;-65
2022/03/16 01:51:24;;;;;;;;;;;18.20;52.50;;;;;;5018635;28;20012;-65
2022/03/16 01:53:49;;;;;;;;;;;18.20;52.50;;;;;;5019380;28;19950;-64
2022/03/16 01:56:15;;;;;;;;;;;18.20;52.40;;;;;;5019878;28;19916;-66
2022/03/16 01:58:41;;;;;;;;;;;18.20;52.40;;;;;;5018360;28;19949;-66
2022/03/16 02:01:06;;;;;;;;;;;18.20;52.50;;;;;;5019278;28;19909;-66
2022/03/16 02:03:32;;;;;;;;;;;18.20;52.40;;;;;;5018090;28;19909;-66
2022/03/16 02:05:57;;;;;;;;;;;18.30;52.50;;;;;;5017937;28;20520;-65
2022/03/16 02:08:23;;;;;;;;;;;18.20;52.50;;;;;;5017369;28;19940;-64
2022/03/16 02:10:48;;;;;;;;;;;18.20;52.50;;;;;;5015558;28;19909;-64
2022/03/16 02:13:14;;;;;;;;;;;18.20;52.50;;;;;;5013375;28;19968;-66
2022/03/16 02:15:39;;;;;;;;;;;18.20;52.50;;;;;;4998056;28;19909;-66
2022/03/16 02:18:05;;;;;;;;;;;18.20;52.50;;;;;;5015077;28;19921;-66
2022/03/16 02:20:30;;;;;;;;;;;18.20;52.40;;;;;;5014941;28;19921;-65
2022/03/16 02:22:56;;;;;;;;;;;18.20;52.40;;;;;;5014206;28;20492;-65
2022/03/16 02:25:22;;;;;;;;;;;18.20;52.50;;;;;;5015844;28;19913;-66
2022/03/16 02:27:47;;;;;;;;;;;18.20;52.50;;;;;;5023270;28;19963;-65
2022/03/16 02:30:13;;;;;;;;;;;18.20;52.50;;;;;;5015306;28;19917;-65
2022/03/16 02:32:38;;;;;;;;;;;18.10;52.70;;;;;;5013248;28;19996;-66
2022/03/16 02:35:04;;;;;;;;;;;18.10;52.70;;;;;;5014559;28;19920;-65
2022/03/16 02:37:29;;;;;;;;;;;18.10;52.70;;;;;;5016065;28;19913;-66
2022/03/16 02:39:55;;;;;;;;;;;18.00;52.70;;;;;;5014905;28;19916;-65
2022/03/16 02:42:21;;;;;;;;;;;18.00;52.80;;;;;;5015010;28;20690;-66
2022/03/16 02:44:47;;;;;;;;;;;18.00;52.40;;;;;;5013854;28;20457;-66
2022/03/16 02:47:12;;;;;;;;;;;18.10;52.40;;;;;;5019710;28;19917;-66
2022/03/16 02:49:38;;;;;;;;;;;18.20;52.20;;;;;;5014974;28;19917;-65
2022/03/16 02:52:07;;;;;;;;;;;18.20;52.10;;;;;;5014019;28;19941;-67
2022/03/16 02:54:32;;;;;;;;;;;18.20;52.00;;;;;;5014369;28;20419;-67
2022/03/16 02:56:58;;;;;;;;;;;18.20;51.80;;;;;;5014506;28;19920;-66
2022/03/16 02:59:23;;;;;;;;;;;18.30;51.80;;;;;;5014302;28;20312;-67
2022/03/16 03:01:49;;;;;;;;;;;18.30;51.90;;;;;;5014329;28;19913;-67
2022/03/16 03:04:15;;;;;;;;;;;18.30;51.90;;;;;;5013400;28;19917;-66
2022/03/16 03:06:40;;;;;;;;;;;18.20;52.00;;;;;;5013347;28;20544;-66
2022/03/16 03:09:06;;;;;;;;;;;18.10;52.10;;;;;;5013275;28;19918;-67
2022/03/16 03:11:31;;;;;;;;;;;18.10;52.30;;;;;;5014187;28;19909;-67
2022/03/16 03:13:57;;;;;;;;;;;18.00;52.20;;;;;;5014024;28;19910;-66
2022/03/16 03:16:22;;;;;;;;;;;18.10;52.40;;;;;;5013481;28;19917;-67
2022/03/16 03:18:48;;;;;;;;;;;18.00;52.30;;;;;;5016818;28;19909;-66
2022/03/16 03:21:13;;;;;;;;;;;18.10;52.30;;;;;;5013387;28;20263;-66
2022/03/16 03:23:38;;;;;;;;;;;18.00;52.30;;;;;;5013266;28;19916;-67
2022/03/16 03:26:04;;;;;;;;;;;18.00;52.20;;;;;;5013059;28;19916;-67
2022/03/16 03:28:29;;;;;;;;;;;18.00;52.30;;;;;;5012562;28;19924;-66
2022/03/16 03:30:55;;;;;;;;;;;18.00;52.30;;;;;;5015515;28;19979;-67
2022/03/16 03:33:20;;;;;;;;;;;18.00;52.30;;;;;;5020754;28;19913;-67
2022/03/16 03:35:46;;;;;;;;;;;18.00;52.50;;;;;;5013769;28;19916;-66
2022/03/16 03:38:13;;;;;;;;;;;18.00;52.50;;;;;;5016210;28;20458;-66
2022/03/16 03:40:38;;;;;;;;;;;18.00;52.40;;;;;;5015477;28;19913;-66
2022/03/16 03:43:03;;;;;;;;;;;18.00;52.30;;;;;;5016223;28;19932;-66
2022/03/16 03:45:29;;;;;;;;;;;18.00;52.30;;;;;;5015918;28;19914;-66
2022/03/16 03:47:54;;;;;;;;;;;18.00;52.20;;;;;;5020191;28;19917;-66
2022/03/16 03:50:20;;;;;;;;;;;18.00;52.20;;;;;;5019645;28;19929;-66
2022/03/16 03:52:45;;;;;;;;;;;18.00;52.30;;;;;;5016581;28;19964;-67
2022/03/16 03:55:11;;;;;;;;;;;18.00;52.20;;;;;;5017305;28;20416;-67
2022/03/16 03:57:36;;;;;;;;;;;18.00;52.40;;;;;;5016765;28;19937;-67
2022/03/16 04:00:02;;;;;;;;;;;18.00;52.50;;;;;;5016336;28;19910;-67
2022/03/16 04:02:28;;;;;;;;;;;18.00;52.40;;;;;;5016737;28;19910;-66
2022/03/16 04:04:53;;;;;;;;;;;18.00;52.40;;;;;;5015389;28;20000;-65
2022/03/16 04:07:18;;;;;;;;;;;18.00;52.40;;;;;;5016313;28;20549;-66
2022/03/16 04:09:44;;;;;;;;;;;18.00;52.40;;;;;;5017930;28;20043;-66
2022/03/16 04:12:09;;;;;;;;;;;18.00;52.40;;;;;;5015380;28;19976;-66
2022/03/16 04:14:35;;;;;;;;;;;18.00;52.40;;;;;;5017059;28;19931;-66
2022/03/16 04:17:00;;;;;;;;;;;17.90;52.40;;;;;;5014900;28;19913;-67
2022/03/16 04:19:26;;;;;;;;;;;17.90;52.50;;;;;;5023017;28;19917;-67
2022/03/16 04:21:51;;;;;;;;;;;17.90;52.50;;;;;;5016566;28;19910;-65
2022/03/16 04:24:17;;;;;;;;;;;17.90;52.60;;;;;;5017227;28;19963;-65
2022/03/16 04:26:42;;;;;;;;;;;17.80;52.80;;;;;;5017403;28;20320;-65
2022/03/16 04:29:07;;;;;;;;;;;17.80;52.90;;;;;;5016181;28;19913;-66
2022/03/16 04:31:33;;;;;;;;;;;17.80;53.00;;;;;;5016322;28;19921;-67
2022/03/16 04:33:58;;;;;;;;;;;17.80;53.00;;;;;;5019679;28;19920;-66
2022/03/16 04:36:24;;;;;;;;;;;17.80;53.00;;;;;;5017155;28;20393;-66
2022/03/16 04:38:50;;;;;;;;;;;17.70;52.80;;;;;;5017829;28;19909;-65
2022/03/16 04:41:15;;;;;;;;;;;17.80;53.00;;;;;;5017889;28;19916;-65
2022/03/16 04:43:41;;;;;;;;;;;17.80;53.00;;;;;;5017207;28;20055;-64
2022/03/16 04:46:06;;;;;;;;;;;17.80;53.00;;;;;;5016825;28;19914;-67
2022/03/16 04:48:32;;;;;;;;;;;17.80;53.00;;;;;;5015519;28;19967;-66
2022/03/16 04:50:57;;;;;;;;;;;17.80;53.00;;;;;;5016306;28;20316;-66
2022/03/16 04:53:23;;;;;;;;;;;17.80;53.00;;;;;;5013763;28;19979;-67
2022/03/16 04:55:48;;;;;;;;;;;17.80;53.00;;;;;;5015721;28;20583;-65
2022/03/16 04:58:13;;;;;;;;;;;17.80;53.00;;;;;;5016556;28;19909;-67
2022/03/16 05:00:39;;;;;;;;;;;17.80;53.00;;;;;;5015397;28;19917;-66
2022/03/16 05:03:04;;;;;;;;;;;17.80;53.10;;;;;;5012558;28;19909;-64
2022/03/16 05:05:30;;;;;;;;;;;17.80;53.00;;;;;;5014895;28;19909;-65
2022/03/16 05:07:55;;;;;;;;;;;17.80;53.00;;;;;;5014357;28;19913;-65
2022/03/16 05:10:21;;;;;;;;;;;17.70;53.10;;;;;;5014335;28;19921;-65
2022/03/16 05:12:46;;;;;;;;;;;17.70;53.20;;;;;;5014606;28;19913;-64
2022/03/16 05:15:13;;;;;;;;;;;17.70;53.20;;;;;;5014217;28;19909;-66
2022/03/16 05:17:38;;;;;;;;;;;17.70;53.10;;;;;;5014547;28;19914;-65
2022/03/16 05:20:04;;;;;;;;;;;17.70;53.10;;;;;;5012814;28;19967;-66
2022/03/16 05:22:30;;;;;;;;;;;17.70;53.10;;;;;;5013676;28;19932;-66
2022/03/16 05:24:55;;;;;;;;;;;17.80;53.10;;;;;;5016002;28;19910;-66
2022/03/16 05:27:21;;;;;;;;;;;17.80;52.80;;;;;;5010265;28;19928;-63
2022/03/16 05:29:47;;;;;;;;;;;17.80;52.80;;;;;;5008749;28;19924;-65
2022/03/16 05:32:12;;;;;;;;;;;17.80;52.80;;;;;;5010075;28;19972;-65
2022/03/16 05:34:38;;;;;;;;;;;17.80;52.80;;;;;;5014403;28;19917;-66
2022/03/16 05:37:04;;;;;;;;;;;17.90;52.80;;;;;;5010063;28;19918;-66
2022/03/16 05:39:29;;;;;;;;;;;17.90;52.80;;;;;;5012218;28;20749;-67
2022/03/16 05:41:54;;;;;;;;;;;17.90;52.80;;;;;;5009392;28;19984;-65
2022/03/16 05:44:20;;;;;;;;;;;17.90;52.80;;;;;;5012581;28;19940;-67
2022/03/16 05:46:45;;;;;;;;;;;18.00;53.10;;;;;;5009522;28;19920;-68
2022/03/16 05:49:11;;;;;;;;;;;18.00;53.80;;;;;;5010336;28;19917;-65
2022/03/16 05:51:36;;;;;;;;;;;18.10;53.30;;;;;;5018569;28;20587;-65
2022/03/16 05:54:02;;;;;;;;;;;18.10;53.20;;;;;;5012284;28;19921;-65
2022/03/16 05:56:27;;;;;;;;;;;18.10;53.10;;;;;;5015402;28;19956;-65
2022/03/16 05:58:53;;;;;;;;;;;18.20;53.00;;;;;;5013900;28;20081;-65
2022/03/16 06:01:18;;;;;;;;;;;18.20;52.90;;;;;;5018940;28;19941;-64
2022/03/16 06:03:44;;;;;;;;;;;18.20;52.90;;;;;;5010933;28;19917;-66
2022/03/16 06:06:09;;;;;;;;;;;18.20;52.80;;;;;;5013339;28;19928;-65
2022/03/16 06:08:35;;;;;;;;;;;18.20;52.80;;;;;;5011602;28;19917;-64
2022/03/16 06:11:00;;;;;;;;;;;18.20;52.80;;;;;;5023548;28;19913;-65
2022/03/16 06:13:26;;;;;;;;;;;18.20;52.70;;;;;;5015585;28;20366;-66
2022/03/16 06:15:51;;;;;;;;;;;18.20;52.60;;;;;;5017751;28;19913;-65
2022/03/16 06:18:16;;;;;;;;;;;18.20;52.50;;;;;;5009842;28;19913;-67
2022/03/16 06:20:42;;;;;;;;;;;18.20;52.40;;;;;;5010593;28;20268;-66
2022/03/16 06:23:08;;;;;;;;;;;18.20;53.10;;;;;;5015423;28;20320;-66
2022/03/16 06:25:34;;;;;;;;;;;18.30;53.60;;;;;;5019825;28;19980;-67
2022/03/16 06:27:59;;;;;;;;;;;18.30;53.80;;;;;;5016283;28;20027;-67
2022/03/16 06:30:25;;;;;;;;;;;18.30;54.60;;;;;;5015324;28;19917;-67
2022/03/16 06:32:50;;;;;;;;;;;18.30;54.00;;;;;;5015196;28;19914;-66
2022/03/16 06:35:16;;;;;;;;;;;18.30;53.90;;;;;;5016087;28;19971;-65
2022/03/16 06:37:41;;;;;;;;;;;18.20;53.80;;;;;;5015560;28;19917;-66
2022/03/16 06:40:07;;;;;;;;;;;18.20;53.80;;;;;;5015755;28;19922;-67
2022/03/16 06:42:33;;;;;;;;;;;18.20;53.60;;;;;;5013232;28;19997;-67
2022/03/16 06:44:58;;;;;;;;;;;18.20;53.40;;;;;;5010612;28;20424;-66
2022/03/16 06:47:23;;;;;;;;;;;18.20;53.20;;;;;;5013943;28;19921;-66
2022/03/16 06:49:49;;;;;;;;;;;18.10;53.00;;;;;;5019155;28;19944;-66
2022/03/16 06:52:14;;;;;;;;;;;18.20;52.80;;;;;;5021114;28;19924;-65
2022/03/16 06:54:40;;;;;;;;;;;18.20;52.60;;;;;;5015365;28;20288;-66
2022/03/16 06:57:05;;;;;;;;;;;18.20;52.60;;;;;;5016234;28;19924;-65
2022/03/16 06:59:31;;;;;;;;;;;18.20;52.40;;;;;;5017978;28;20647;-67
2022/03/16 07:01:56;;;;;;;;;;;18.20;52.20;;;;;;5023737;28;19918;-66
2022/03/16 07:04:22;;;;;;;;;;;18.20;52.40;;;;;;5014833;28;19940;-68
2022/03/16 07:06:47;;;;;;;;;;;18.10;52.70;;;;;;5016950;28;20043;-66
2022/03/16 07:09:12;;;;;;;;;;;18.10;52.90;;;;;;5017263;28;19925;-66
2022/03/16 07:11:38;;;;;;;;;;;18.00;53.00;;;;;;5016785;28;19976;-66
2022/03/16 07:16:47;;;;;;;;;;;18.00;52.70;;;;;;5017013;28;19921;-64
2022/03/16 07:19:13;;;;;;;;;;;18.00;52.60;;;;;;5018520;28;19913;-66
2022/03/16 07:21:38;;;;;;;;;;;18.00;52.50;;;;;;5022939;28;19935;-66
2022/03/16 07:24:04;;;;;;;;;;;18.00;52.50;;;;;;5016436;28;20452;-65
2022/03/16 07:26:30;;;;;;;;;;;18.00;52.60;;;;;;5020275;28;19918;-67
2022/03/16 07:28:56;;;;;;;;;;;18.00;52.50;;;;;;5018927;28;20004;-66
2022/03/16 07:31:22;;;;;;;;;;;18.10;52.50;;;;;;5016231;28;19921;-64
2022/03/16 07:33:47;;;;;;;;;;;18.00;52.70;;;;;;5015585;28;19913;-64
2022/03/16 07:36:13;;;;;;;;;;;18.00;52.70;;;;;;5016514;28;20001;-66
2022/03/16 07:38:38;;;;;;;;;;;18.00;52.70;;;;;;5016762;28;19968;-64
2022/03/16 07:41:05;;;;;;;;;;;18.10;52.60;;;;;;5014830;28;20020;-65
2022/03/16 07:43:30;;;;;;;;;;;18.10;52.50;;;;;;5016138;28;19914;-65
2022/03/16 07:45:56;;;;;;;;;;;18.10;52.60;;;;;;5017147;28;19925;-65
2022/03/16 07:48:22;;;;;;;;;;;18.10;52.50;;;;;;5016194;28;20060;-64
2022/03/16 07:50:47;;;;;;;;;;;18.10;52.40;;;;;;5015924;28;19928;-64
2022/03/16 07:53:13;;;;;;;;;;;18.10;52.40;;;;;;5021078;28;19914;-65
2022/03/16 07:55:38;;;;;;;;;;;18.20;52.30;;;;;;5013957;28;19917;-65
2022/03/16 07:58:04;;;;;;;;;;;18.20;52.30;;;;;;5012522;28;19961;-65
2022/03/16 08:00:29;;;;;;;;;;;18.20;52.30;;;;;;5014802;28;20438;-65
2022/03/16 08:02:55;;;;;;;;;;;18.10;52.20;;;;;;5016875;28;19914;-66
2022/03/16 08:05:24;;;;;;;;;;;18.20;52.20;;;;;;5009044;28;19922;-66
2022/03/16 08:07:50;;;;;;;;;;;18.20;52.10;;;;;;5012166;28;20131;-66
2022/03/16 08:10:15;;;;;;;;;;;18.20;52.10;;;;;;5014080;28;19917;-66
2022/03/16 08:12:41;;;;;;;;;;;18.30;52.10;;;;;;5013102;28;19979;-66
2022/03/16 08:15:06;;;;;;;;;;;18.30;52.00;;;;;;5013945;28;19954;-64
2022/03/16 08:17:32;;;;;;;;;;;18.30;52.10;;;;;;5020705;28;19914;-65
2022/03/16 08:19:57;;;;;;;;;;;18.30;52.10;;;;;;5017397;28;20372;-65
2022/03/16 08:22:26;;;;;;;;;;;18.30;52.00;;;;;;5016741;28;19914;-66
2022/03/16 08:24:52;;;;;;;;;;;18.30;52.00;;;;;;5017530;28;19917;-66
2022/03/16 08:27:18;;;;;;;;;;;18.30;52.10;;;;;;5016479;28;19924;-67
2022/03/16 08:29:43;;;;;;;;;;;18.30;52.00;;;;;;5015955;28;19963;-66
2022/03/16 08:32:08;;;;;;;;;;;18.30;52.00;;;;;;5016214;28;20323;-67
2022/03/16 08:34:34;;;;;;;;;;;18.30;52.00;;;;;;5016581;28;19914;-66
2022/03/16 08:37:00;;;;;;;;;;;18.30;51.90;;;;;;5016683;28;19924;-66
2022/03/16 08:39:26;;;;;;;;;;;18.40;52.00;;;;;;5017886;28;19925;-66
2022/03/16 08:41:51;;;;;;;;;;;18.40;52.10;;;;;;5016512;28;19913;-66
2022/03/16 08:44:17;;;;;;;;;;;18.40;52.10;;;;;;5024654;28;19913;-66
2022/03/16 08:46:42;;;;;;;;;;;18.40;52.10;;;;;;5019710;28;19917;-67
2022/03/16 08:49:08;;;;;;;;;;;18.40;52.10;;;;;;5021521;28;19928;-65
2022/03/16 08:51:33;;;;;;;;;;;18.40;52.00;;;;;;5019961;28;19926;-66
2022/03/16 08:53:59;;;;;;;;;;;18.40;52.00;;;;;;5018353;28;19917;-66
2022/03/16 08:56:24;;;;;;;;;;;18.40;52.00;;;;;;5019781;28;19987;-65
2022/03/16 08:58:50;;;;;;;;;;;18.40;51.90;;;;;;5018286;28;19922;-66
2022/03/16 09:01:15;;;;;;;;;;;18.40;51.90;;;;;;5015257;28;19920;-65
2022/03/16 09:03:40;;;;;;;;;;;18.50;52.00;;;;;;5014464;28;20376;-65
2022/03/16 09:06:06;;;;;;;;;;;18.50;52.00;;;;;;5014073;28;19917;-66
2022/03/16 09:08:32;;;;;;;;;;;18.50;51.90;;;;;;5013661;28;19924;-66
2022/03/16 09:10:57;;;;;;;;;;;18.50;51.90;;;;;;5015535;28;19983;-66
2022/03/16 09:13:23;;;;;;;;;;;18.50;52.00;;;;;;5014898;28;19914;-67
2022/03/16 09:15:50;;;;;;;;;;;18.40;52.00;;;;;;5013554;28;20105;-66
2022/03/16 09:18:18;;;;;;;;;;;18.50;51.90;;;;;;5014091;28;19963;-65
2022/03/16 09:20:43;;;;;;;;;;;18.50;52.60;;;;;;5012576;28;19921;-66
2022/03/16 09:23:09;;;;;;;;;;;18.50;51.90;;;;;;5013389;28;19913;-66
2022/03/16 09:25:35;;;;;;;;;;;18.50;51.80;;;;;;5012776;28;19921;-65
2022/03/16 09:28:01;;;;;;;;;;;18.50;51.80;;;;;;5012873;28;19945;-65
2022/03/16 09:30:26;;;;;;;;;;;18.50;51.70;;;;;;5012094;28;19950;-67
2022/03/16 09:32:57;;;;;;;;;;;18.50;51.70;;;;;;5013405;28;20403;-66
2022/03/16 09:35:23;;;;;;;;;;;18.50;51.70;;;;;;5012579;28;19999;-66
2022/03/16 09:37:49;;;;;;;;;;;18.50;51.70;;;;;;5012919;28;19914;-65
2022/03/16 09:40:15;;;;;;;;;;;18.50;51.70;;;;;;5014070;28;19914;-66
2022/03/16 09:42:40;;;;;;;;;;;18.50;51.70;;;;;;5012977;28;19914;-66
2022/03/16 09:45:06;;;;;;;;;;;18.50;51.60;;;;;;5016419;28;19918;-66
2022/03/16 09:47:32;;;;;;;;;;;18.50;51.70;;;;;;5014213;28;19921;-66
2022/03/16 09:49:57;;;;;;;;;;;18.50;51.60;;;;;;5013727;28;19952;-66
2022/03/16 09:52:23;;;;;;;;;;;18.50;51.60;;;;;;5013724;28;19920;-67
2022/03/16 09:54:48;;;;;;;;;;;18.50;51.60;;;;;;5014697;28;19913;-65
2022/03/16 09:57:14;;;;;;;;;;;18.50;51.70;;;;;;5012145;28;19917;-66
2022/03/16 09:59:39;;;;;;;;;;;18.50;51.60;;;;;;5017806;28;19920;-65
2022/03/16 10:02:06;;;;;;;;;;;18.50;51.70;;;;;;5015305;28;20408;-66
2022/03/16 10:04:33;;;;;;;;;;;18.50;51.70;;;;;;5019925;28;19936;-66
2022/03/16 10:06:59;;;;;;;;;;;18.50;51.60;;;;;;5011970;28;19919;-66
2022/03/16 10:15:10;;;;;;;;;;;18.50;51.70;;;;;;5009184;28;20435;-65
2022/03/16 10:17:45;;;;;;;;;;;18.60;51.70;;;;;;5013872;28;20053;-65
2022/03/16 10:20:28;;;;;;;;;;;18.60;51.80;;;;;;5012715;28;19917;-64
2022/03/16 10:22:57;;;;;;;;;;;18.60;51.80;;;;;;5014739;28;19921;-65
2022/03/16 10:25:23;;;;;;;;;;;18.60;51.80;;;;;;5015214;28;19968;-65
2022/03/16 10:27:48;;;;;;;;;;;18.70;51.80;;;;;;5015314;28;19922;-64
2022/03/16 10:30:14;;;;;;;;;;;18.70;51.70;;;;;;5016934;28;19913;-65
2022/03/16 10:32:53;;;;;;;;;;;18.70;51.70;;;;;;5016082;28;19936;-65
2022/03/16 10:35:18;;;;;;;;;;;18.70;51.60;;;;;;5015862;28;19913;-65
2022/03/16 10:37:45;;;;;;;;;;;18.70;51.60;;;;;;5015588;28;19921;-64
2022/03/16 10:40:17;;;;;;;;;;;18.70;51.60;;;;;;5013418;28;19949;-64
2022/03/16 10:48:14;;;;;;;;;;;18.80;51.60;;;;;;5015785;28;19925;-63
2022/03/16 10:50:43;;;;;;;;;;;18.80;51.50;;;;;;5018548;28;19929;-64
2022/03/16 10:53:11;;;;;;;;;;;18.80;51.50;;;;;;5009775;28;19924;-64
2022/03/16 10:55:37;;;;;;;;;;;18.80;51.50;;;;;;5012470;28;19963;-64
2022/03/16 10:58:03;;;;;;;;;;;18.80;51.60;;;;;;5010379;28;20538;-64
2022/03/16 11:00:28;;;;;;;;;;;18.80;51.60;;;;;;5009147;28;19935;-64
2022/03/16 11:02:54;;;;;;;;;;;18.80;51.60;;;;;;5011878;28;19920;-64
2022/03/16 11:05:20;;;;;;;;;;;18.80;51.60;;;;;;5012466;28;19914;-65
2022/03/16 11:07:49;;;;;;;;;;;18.80;51.60;;;;;;5012551;28;19917;-65
2022/03/16 11:10:14;;;;;;;;;;;18.80;51.40;;;;;;5013153;28;19971;-64
2022/03/16 11:15:24;;;;;;;;;;;18.80;51.40;;;;;;5008859;28;20461;-65
2022/03/16 11:17:51;;;;;;;;;;;18.80;51.40;;;;;;5008805;28;19913;-65
2022/03/16 11:20:19;;;;;;;;;;;18.80;51.40;;;;;;5008500;28;19913;-66
2022/03/16 11:24:16;;;;;;;;;;;18.80;51.50;;;;;;5010796;28;19914;-66
2022/03/16 11:25:41;;;;;;;;;;;18.70;51.40;;;;;;5011727;28;19924;-65
2022/03/16 11:28:07;;;;;;;;;;;18.80;51.40;;;;;;5006892;28;19922;-65
2022/03/16 11:30:37;;;;;;;;;;;18.80;51.40;;;;;;5008641;28;19914;-65
2022/03/16 11:33:02;;;;;;;;;;;18.70;51.30;;;;;;5008175;28;19913;-65
2022/03/16 11:35:30;;;;;;;;;;;18.70;51.40;;;;;;5009153;28;20180;-65
2022/03/16 11:37:58;;;;;;;;;;;18.70;51.30;;;;;;5006789;28;20008;-66
2022/03/16 11:40:24;;;;;;;;;;;18.70;51.30;;;;;;5009361;28;20471;-67
2022/03/16 11:43:05;;;;;;;;;;;18.70;51.30;;;;;;5006903;28;20288;-67
2022/03/16 11:45:37;;;;;;;;;;;18.70;51.60;;;;;;5003513;28;20004;-67
2022/03/16 11:48:21;;;;;;;;;;;18.70;51.60;;;;;;5002811;28;20001;-65
2022/03/16 11:51:05;;;;;;;;;;;18.70;51.90;;;;;;5003299;28;19928;-64
2022/03/16 11:54:02;;;;;;;;;;;18.70;52.00;;;;;;5003479;28;19914;-65
2022/03/16 11:56:29;;;;;;;;;;;18.70;52.00;;;;;;5006340;28;20687;-64
2022/03/16 11:59:02;;;;;;;;;;;18.70;51.90;;;;;;5002552;28;19913;-65
2022/03/16 12:01:28;;;;;;;;;;;18.70;51.80;;;;;;5008391;28;19920;-65
2022/03/16 12:04:12;;;;;;;;;;;18.70;51.70;;;;;;5004298;28;19914;-65
2022/03/16 12:06:47;;;;;;;;;;;18.70;51.60;;;;;;5002429;28;19951;-65
2022/03/16 12:09:18;;;;;;;;;;;18.70;51.60;;;;;;5003216;28;20035;-65
2022/03/16 12:15:02;;;;;;;;;;;18.70;51.30;;;;;;4999197;28;20087;-64
2022/03/16 12:17:28;;;;;;;;;;;18.80;51.30;;;;;;5003152;28;19914;-65
2022/03/16 12:20:13;;;;;;;;;;;18.80;51.20;;;;;;5003373;28;19920;-65
2022/03/16 12:22:48;;;;;;;;;;;18.80;51.10;;;;;;5004674;28;19914;-65
2022/03/16 12:25:25;;;;;;;;;;;18.80;51.10;;;;;;5005173;28;20050;-65
2022/03/16 12:30:44;;;;;;;;;;;18.80;50.80;;;;;;5004185;28;19963;-65
2022/03/16 12:33:16;;;;;;;;;;;18.80;50.70;;;;;;5003505;28;19920;-66
2022/03/16 12:35:42;;;;;;;;;;;18.80;50.60;;;;;;5003497;28;20398;-66
2022/03/16 12:38:08;;;;;;;;;;;18.80;50.60;;;;;;5003826;28;19992;-66
2022/03/16 12:40:35;;;;;;;;;;;18.90;50.70;;;;;;5001124;28;19913;-66
2022/03/16 12:43:01;;;;;;;;;;;18.90;50.50;;;;;;5003715;28;19920;-66
2022/03/16 12:45:28;;;;;;;;;;;18.90;50.50;;;;;;5010146;28;19918;-66
2022/03/16 12:48:04;;;;;;;;;;;18.90;50.20;;;;;;5012921;28;19949;-65
2022/03/16 12:50:29;;;;;;;;;;;18.90;50.30;;;;;;5014215;28;19926;-66
2022/03/16 12:52:55;;;;;;;;;;;18.90;50.10;;;;;;5014923;28;20415;-66
2022/03/16 12:55:20;;;;;;;;;;;18.90;50.10;;;;;;5016519;28;19923;-66
2022/03/16 12:57:55;;;;;;;;;;;18.90;50.10;;;;;;5024392;28;20226;-66
2022/03/16 13:00:21;;;;;;;;;;;18.90;50.00;;;;;;5015994;28;20166;-65
2022/03/16 13:02:47;;;;;;;;;;;18.90;50.10;;;;;;5019646;28;19913;-66
2022/03/16 13:05:18;;;;;;;;;;;18.90;49.90;;;;;;5016430;28;19913;-66
2022/03/16 13:07:44;;;;;;;;;;;18.90;50.00;;;;;;5015238;28;19975;-65
2022/03/16 13:10:09;;;;;;;;;;;18.90;50.00;;;;;;5014729;28;19928;-65
2022/03/16 13:12:34;;;;;;;;;;;18.90;50.00;;;;;;5019176;28;19914;-65
2022/03/16 13:15:00;;;;;;;;;;;18.90;50.00;;;;;;5019445;28;19918;-65
2022/03/16 13:17:33;;;;;;;;;;;18.90;49.90;;;;;;5018827;28;19920;-65
2022/03/16 13:19:59;;;;;;;;;;;18.90;49.90;;;;;;5015946;28;19971;-65
2022/03/16 13:22:25;;;;;;;;;;;18.90;49.90;;;;;;5019311;28;19917;-66
2022/03/16 13:24:52;;;;;;;;;;;18.90;49.90;;;;;;5016192;28;19920;-65
2022/03/16 13:27:18;;;;;;;;;;;18.90;50.00;;;;;;5014497;28;19914;-66
2022/03/16 13:29:53;;;;;;;;;;;18.90;49.90;;;;;;5014979;28;19914;-66
2022/03/16 13:32:19;;;;;;;;;;;18.90;49.90;;;;;;5012435;28;19914;-65
2022/03/16 13:34:45;;;;;;;;;;;18.90;49.80;;;;;;5014937;28;20551;-66
2022/03/16 13:37:23;;;;;;;;;;;18.90;49.90;;;;;;5013837;28;20404;-67
2022/03/16 13:39:59;;;;;;;;;;;19.00;50.00;;;;;;5012477;28;20483;-67
2022/03/16 13:42:27;;;;;;;;;;;19.00;49.80;;;;;;5013809;28;20443;-66
2022/03/16 13:44:53;;;;;;;;;;;19.00;49.90;;;;;;5012688;28;19917;-65
2022/03/16 13:47:20;;;;;;;;;;;19.00;50.00;;;;;;5016607;28;19922;-67
2022/03/16 13:49:46;;;;;;;;;;;18.90;50.10;;;;;;5018469;28;20380;-64
2022/03/16 13:52:12;;;;;;;;;;;19.00;50.30;;;;;;5013509;28;19917;-65
2022/03/16 13:54:38;;;;;;;;;;;19.00;50.40;;;;;;5020454;28;19917;-65
2022/03/16 13:57:10;;;;;;;;;;;19.00;50.40;;;;;;5016677;28;19917;-65
2022/03/16 13:59:35;;;;;;;;;;;19.00;50.40;;;;;;5020903;28;19928;-66
2022/03/16 14:02:10;;;;;;;;;;;19.00;50.40;;;;;;5018656;28;19913;-66
2022/03/16 14:04:36;;;;;;;;;;;19.00;50.30;;;;;;5023746;28;19914;-66
2022/03/16 14:07:12;;;;;;;;;;;19.00;50.40;;;;;;5016928;28;20332;-67
2022/03/16 14:09:41;;;;;;;;;;;19.00;50.30;;;;;;5021034;28;19945;-66
2022/03/16 14:12:10;;;;;;;;;;;19.00;50.30;;;;;;5017673;28;19928;-66
2022/03/16 14:14:36;;;;;;;;;;;19.00;50.30;;;;;;5020908;28;19936;-67
2022/03/16 14:17:01;;;;;;;;;;;19.00;50.20;;;;;;5017468;28;19914;-66
2022/03/16 14:19:30;;;;;;;;;;;19.00;50.30;;;;;;5017227;28;19929;-66
2022/03/16 14:21:56;;;;;;;;;;;19.00;50.20;;;;;;5018147;28;19983;-65
2022/03/16 14:24:22;;;;;;;;;;;19.10;50.20;;;;;;5017680;28;20257;-64
2022/03/16 14:26:48;;;;;;;;;;;19.00;50.10;;;;;;5018492;28;19918;-65
2022/03/16 14:29:15;;;;;;;;;;;19.00;50.10;;;;;;5026190;28;25679;-66
2022/03/16 14:31:42;;;;;;;;;;;19.10;50.10;;;;;;5018297;28;19914;-66
2022/03/16 14:34:08;;;;;;;;;;;19.00;50.10;;;;;;5020033;28;19909;-65
2022/03/16 14:36:33;;;;;;;;;;;19.10;50.10;;;;;;5017311;28;19971;-67